Time;durP1;ratioP1;P1;durP2;ratioP2;P2;SDS_P1;SDS_P2;PMS_P1;PMS_P2;Temp;Humidity;BMP_temperature;BMP_pressure;BME280_temperature;BME280_humidity;BME280_pressure;Samples;Min_cycle;Max_cycle;Signal;HPM_P1;HPM_P2
2023/11/01 00:01:49;;;;;;;20.13;9.13;;;;;;;4.12;100.00;100599.28;7372465;19;20511;-41
2023/11/01 00:04:19;;;;;;;20.23;8.70;;;;;;;4.17;100.00;100591.91;7395014;19;20462;-42
2023/11/01 00:06:48;;;;;;;25.20;12.50;;;;;;;4.15;100.00;100602.00;7372313;19;20452;-41
2023/11/01 00:09:18;;;;;;;19.00;9.37;;;;;;;4.18;100.00;100608.97;7394409;19;20825;-39
2023/11/01 00:11:48;;;;;;;24.67;10.83;;;;;;;4.16;100.00;100606.31;7370640;19;20455;-41
2023/11/01 00:14:18;;;;;;;18.27;9.73;;;;;;;4.19;100.00;100605.63;7394846;19;20400;-40
2023/11/01 00:16:50;;;;;;;16.60;8.70;;;;;;;4.30;100.00;100608.88;7373418;19;20453;-40
2023/11/01 00:19:20;;;;;;;22.17;9.90;;;;;;;4.32;100.00;100617.56;7394638;19;20483;-40
2023/11/01 00:21:49;;;;;;;12.57;7.73;;;;;;;4.32;100.00;100617.56;7372254;19;20462;-40
2023/11/01 00:24:19;;;;;;;15.70;8.13;;;;;;;4.32;100.00;100612.44;7395791;19;20423;-41
2023/11/01 00:26:48;;;;;;;21.97;11.00;;;;;;;4.37;100.00;100611.06;7372804;19;20435;-41
2023/11/01 00:29:18;;;;;;;16.57;8.40;;;;;;;4.39;100.00;100609.50;7394267;19;20470;-41
2023/11/01 00:31:50;;;;;;;22.30;10.70;;;;;;;4.40;100.00;100616.38;7371762;19;20459;-40
2023/11/01 00:34:20;;;;;;;15.73;7.67;;;;;;;4.40;100.00;100615.47;7394384;19;20982;-39
2023/11/01 00:36:49;;;;;;;16.87;9.23;;;;;;;4.44;100.00;100613.25;7373314;19;20427;-40
2023/11/01 00:39:19;;;;;;;13.20;8.00;;;;;;;4.43;100.00;100608.91;7394798;19;20396;-41
2023/11/01 00:41:49;;;;;;;16.50;8.30;;;;;;;4.39;100.00;100606.94;7371021;19;20458;-40
2023/11/01 00:44:18;;;;;;;18.60;8.17;;;;;;;4.41;100.00;100602.81;7394325;19;20423;-40
2023/11/01 00:46:50;;;;;;;27.07;11.60;;;;;;;4.48;100.00;100609.22;7371810;19;20427;-40
2023/11/01 00:49:20;;;;;;;18.63;9.20;;;;;;;4.51;100.00;100613.63;7392735;19;20948;-39
2023/11/01 00:51:49;;;;;;;25.73;11.90;;;;;;;4.60;100.00;100619.31;7372270;19;20527;-40
2023/11/01 00:54:19;;;;;;;17.97;7.43;;;;;;;4.57;100.00;100612.34;7393997;19;20399;-40
2023/11/01 00:56:49;;;;;;;22.13;10.67;;;;;;;4.64;100.00;100616.19;7372575;19;20459;-41
2023/11/01 00:59:18;;;;;;;28.30;12.37;;;;;;;4.64;100.00;100607.59;7395819;19;20404;-40
2023/11/01 01:01:50;;;;;;;15.40;8.50;;;;;;;4.65;100.00;100604.25;7377580;19;20897;-40
2023/11/01 01:04:20;;;;;;;15.50;7.80;;;;;;;4.63;100.00;100608.41;7403154;19;20395;-40
2023/11/01 01:06:50;;;;;;;14.90;8.03;;;;;;;4.56;100.00;100602.03;7377494;19;20451;-40
2023/11/01 01:09:19;;;;;;;14.70;8.23;;;;;;;4.56;100.00;100602.03;7399850;19;20419;-40
2023/11/01 01:11:49;;;;;;;15.80;8.43;;;;;;;4.62;100.00;100597.31;7375415;19;20543;-40
2023/11/01 01:14:19;;;;;;;12.07;6.50;;;;;;;4.67;100.00;100589.94;7400030;19;20412;-40
2023/11/01 01:16:52;;;;;;;12.83;6.30;;;;;;;4.66;100.00;100583.91;7378353;19;20839;-39
2023/11/01 01:19:22;;;;;;;19.13;6.90;;;;;;;4.68;100.00;100576.34;7399907;19;20408;-40
2023/11/01 01:21:51;;;;;;;14.93;7.83;;;;;;;4.76;100.00;100576.84;7376929;19;20467;-40
2023/11/01 01:24:21;;;;;;;27.73;13.23;;;;;;;4.81;100.00;100578.00;7402773;19;20422;-41
2023/11/01 01:26:50;;;;;;;13.17;6.10;;;;;;;4.77;100.00;100570.94;7379115;19;20472;-40
2023/11/01 01:29:20;;;;;;;13.50;6.13;;;;;;;4.77;100.00;100578.59;7401966;19;20407;-39
2023/11/01 01:31:52;;;;;;;10.83;5.50;;;;;;;4.71;100.00;100572.31;7377431;19;20487;-39
2023/11/01 01:34:22;;;;;;;12.80;6.20;;;;;;;4.73;100.00;100568.19;7399896;19;20413;-42
2023/11/01 01:36:51;;;;;;;15.13;7.00;;;;;;;4.82;100.00;100564.44;7378729;19;20426;-40
2023/11/01 01:39:21;;;;;;;9.77;5.40;;;;;;;4.83;100.00;100555.97;7400252;19;20403;-40
2023/11/01 01:41:51;;;;;;;12.47;6.20;;;;;;;4.93;100.00;100558.28;7377614;19;20458;-41
2023/11/01 01:44:20;;;;;;;12.33;6.30;;;;;;;4.82;100.00;100555.09;7399107;19;20833;-40
2023/11/01 01:46:53;;;;;;;20.73;9.90;;;;;;;4.88;100.00;100567.38;7378846;19;20447;-41
2023/11/01 01:49:22;;;;;;;21.83;9.77;;;;;;;4.89;100.00;100564.03;7399199;19;20403;-41
2023/11/01 01:52:06;;;;;;;8.73;4.93;;;;;;;4.92;100.00;100563.34;7377663;19;20450;-40
2023/11/01 01:54:36;;;;;;;11.40;5.37;;;;;;;4.91;100.00;100559.88;7400680;19;20420;-40
2023/11/01 01:57:05;;;;;;;9.60;4.77;;;;;;;4.85;100.00;100564.63;7380316;19;20494;-40
2023/11/01 01:59:35;;;;;;;13.70;6.13;;;;;;;4.88;100.00;100563.94;7399712;19;20416;-40
2023/11/01 02:02:09;;;;;;;9.70;5.23;;;;;;;4.90;100.00;100568.34;7377330;19;20479;-42
2023/11/01 02:04:39;;;;;;;13.93;5.50;;;;;;;4.87;100.00;100586.03;7391163;19;20748;-39
2023/11/01 02:07:09;;;;;;;9.27;5.53;;;;;;;4.92;100.00;100586.34;7401059;19;20426;-41
2023/11/01 02:09:39;;;;;;;12.30;6.30;;;;;;;5.00;100.00;100587.69;7375629;19;20863;-37
2023/11/01 02:12:09;;;;;;;14.67;6.80;;;;;;;5.08;100.00;100603.53;7397705;19;20408;-38
2023/11/01 02:14:38;;;;;;;10.67;5.10;;;;;;;5.03;100.00;100599.78;7386334;19;20416;-38
2023/11/01 02:17:11;;;;;;;21.37;9.00;;;;;;;5.07;100.00;100605.19;7397615;19;20419;-41
2023/11/01 02:19:40;;;;;;;14.07;5.30;;;;;;;5.06;100.00;100605.97;7367892;19;20432;-39
2023/11/01 02:22:10;;;;;;;14.60;6.90;;;;;;;5.11;100.00;100613.94;7397972;19;20399;-42
2023/11/01 02:24:43;;;;;;;20.23;9.27;;;;;;;5.17;100.00;100616.00;7375600;19;20943;-38
2023/11/01 02:27:13;;;;;;;14.53;5.33;;;;;;;5.08;100.00;100614.63;7399419;19;20979;-39
2023/11/01 02:29:43;;;;;;;10.00;4.60;;;;;;;5.07;100.00;100614.53;7372639;19;20432;-37
2023/11/01 02:32:13;;;;;;;11.53;5.30;;;;;;;5.05;100.00;100616.09;7395354;19;20778;-38
2023/11/01 02:34:42;;;;;;;25.63;12.23;;;;;;;5.11;100.00;100614.81;7376265;19;20400;-43
2023/11/01 02:37:12;;;;;;;17.07;6.00;;;;;;;5.11;100.00;100608.81;7394873;19;20418;-42
2023/11/01 02:39:44;;;;;;;8.20;4.13;;;;;;;5.04;100.00;100599.00;7372473;19;21228;-39
2023/11/01 02:42:14;;;;;;;6.07;3.40;;;;;;;5.01;100.00;100581.78;7395500;19;20495;-40
2023/11/01 02:44:44;;;;;;;9.93;3.50;;;;;;;5.02;100.00;100578.44;7373143;19;20408;-39
2023/11/01 02:47:13;;;;;;;6.03;2.80;;;;;;;5.02;100.00;100573.31;7396819;19;20459;-40
2023/11/01 02:49:43;;;;;;;7.83;3.03;;;;;;;5.10;100.00;100566.13;7372291;19;20464;-36
2023/11/01 02:52:13;;;;;;;4.63;2.80;;;;;;;5.06;100.00;100561.59;7394981;19;20423;-37
2023/11/01 02:54:45;;;;;;;14.60;6.73;;;;;;;5.11;100.00;100550.88;7375027;19;20404;-36
2023/11/01 02:57:14;;;;;;;5.47;2.77;;;;;;;5.04;100.00;100546.19;7394721;19;20792;-40
2023/11/01 02:59:44;;;;;;;7.30;3.30;;;;;;;5.03;100.00;100548.66;7371890;19;20439;-36
2023/11/01 03:02:13;;;;;;;13.80;6.40;;;;;;;4.99;100.00;100538.22;7394802;19;20426;-39
2023/11/01 03:04:43;;;;;;;9.57;4.33;;;;;;;5.03;100.00;100538.41;7374727;19;20396;-36
2023/11/01 03:07:13;;;;;;;6.10;3.10;;;;;;;5.07;100.00;100528.47;7396214;19;21003;-39
2023/11/01 03:09:45;;;;;;;12.93;5.33;;;;;;;5.14;100.00;100522.91;7370169;19;20451;-38
2023/11/01 03:12:15;;;;;;;10.50;4.70;;;;;;;5.15;100.00;100508.47;7394617;19;20745;-42
2023/11/01 03:14:44;;;;;;;9.67;3.87;;;;;;;5.19;100.00;100502.75;7374351;19;20427;-37
2023/11/01 03:17:14;;;;;;;7.17;3.77;;;;;;;5.17;100.00;100504.31;7394575;19;20439;-41
2023/11/01 03:19:44;;;;;;;11.70;5.10;;;;;;;5.17;100.00;100491.53;7371444;19;21022;-38
2023/11/01 03:22:13;;;;;;;10.83;3.83;;;;;;;5.22;100.00;100492.69;7395806;19;20407;-37
2023/11/01 03:24:45;;;;;;;10.40;5.63;;;;;;;5.17;100.00;100506.88;7372297;19;20395;-36
2023/11/01 03:27:15;;;;;;;9.80;4.63;;;;;;;5.18;100.00;100518.88;7393774;19;20407;-40
2023/11/01 03:29:44;;;;;;;11.83;4.73;;;;;;;5.13;100.00;100521.16;7370463;19;20439;-39
2023/11/01 03:32:14;;;;;;;9.20;3.60;;;;;;;5.12;100.00;100513.38;7393553;19;20403;-40
2023/11/01 03:34:44;;;;;;;8.17;3.90;;;;;;;5.19;100.00;100522.31;7372521;19;20410;-38
2023/11/01 03:37:13;;;;;;;10.53;3.93;;;;;;;5.21;100.00;100529.28;7395323;19;20404;-37
2023/11/01 03:39:46;;;;;;;10.57;5.70;;;;;;;5.24;100.00;100524.34;7370934;19;20473;-37
2023/11/01 03:42:15;;;;;;;10.50;4.07;;;;;;;5.26;100.00;100527.91;7394960;19;20963;-41
2023/11/01 03:44:45;;;;;;;9.30;3.73;;;;;;;5.24;100.00;100528.59;7370955;19;20423;-38
2023/11/01 03:47:15;;;;;;;16.63;7.33;;;;;;;5.25;100.00;100525.25;7393786;19;20420;-38
2023/11/01 03:49:44;;;;;;;10.93;3.43;;;;;;;5.19;100.00;100515.53;7370919;19;20443;-37
2023/11/01 03:52:14;;;;;;;8.83;4.60;;;;;;;5.22;100.00;100517.38;7392745;19;20403;-43
2023/11/01 03:54:46;;;;;;;7.87;3.60;;;;;;;5.24;100.00;100503.88;7371294;19;20803;-37
2023/11/01 03:57:16;;;;;;;4.30;3.10;;;;;;;5.24;100.00;100492.78;7394390;19;20483;-41
2023/11/01 03:59:46;;;;;;;8.30;4.13;;;;;;;5.24;100.00;100493.66;7370330;19;20443;-39
2023/11/01 04:02:15;;;;;;;8.27;4.10;;;;;;;5.20;100.00;100481.50;7394499;19;20416;-38
2023/11/01 04:04:45;;;;;;;15.47;6.47;;;;;;;5.23;100.00;100476.53;7371107;19;20444;-38
2023/11/01 04:07:15;;;;;;;8.90;3.30;;;;;;;5.27;100.00;100477.59;7394638;19;20399;-45
2023/11/01 04:09:47;;;;;;;13.70;3.30;;;;;;;5.30;100.00;100467.56;7368388;19;20440;-39
2023/11/01 04:12:16;;;;;;;7.17;3.47;;;;;;;5.26;100.00;100456.28;7394581;19;20416;-42
2023/11/01 04:14:46;;;;;;;3.87;2.67;;;;;;;5.25;100.00;100459.63;7370501;19;20476;-37
2023/11/01 04:17:16;;;;;;;6.50;2.30;;;;;;;5.31;100.00;100451.41;7394022;19;20403;-37
2023/11/01 04:19:45;;;;;;;4.40;2.20;;;;;;;5.29;100.00;100439.31;7370028;19;20451;-38
2023/11/01 04:22:15;;;;;;;5.47;2.33;;;;;;;5.29;100.00;100434.22;7392836;19;20946;-42
2023/11/01 04:24:47;;;;;;;4.73;2.90;;;;;;;5.30;100.00;100420.63;7370238;19;20399;-38
2023/11/01 04:27:16;;;;;;;19.30;9.50;;;;;;;5.24;100.00;100410.94;7392340;19;20491;-36
2023/11/01 04:29:46;;;;;;;7.83;2.53;;;;;;;5.23;100.00;100397.25;7369411;19;20458;-38
2023/11/01 04:32:16;;;;;;;5.00;2.40;;;;;;;5.24;100.00;100380.22;7391331;19;20431;-37
2023/11/01 04:34:49;;;;;;;9.03;3.77;;;;;;;5.31;100.00;100371.22;7368384;19;20403;-36
2023/11/01 04:37:19;;;;;;;8.43;2.07;;;;;;;5.31;100.00;100378.88;7393580;19;20407;-37
2023/11/01 04:39:51;;;;;;;9.30;2.73;;;;;;;5.26;100.00;100364.19;7369665;19;20542;-35
2023/11/01 04:42:21;;;;;;;2.70;1.53;;;;;;;5.24;100.00;100350.41;7392100;19;20935;-41
2023/11/01 04:44:51;;;;;;;10.10;4.10;;;;;;;5.24;100.00;100335.03;7370943;19;20411;-37
2023/11/01 04:47:20;;;;;;;5.23;2.53;;;;;;;5.24;100.00;100324.81;7390650;19;20409;-39
2023/11/01 04:49:51;;;;;;;7.57;1.80;;;;;;;5.20;100.00;100310.09;7368486;19;20435;-44
2023/11/01 04:52:20;;;;;;;8.23;1.97;;;;;;;5.24;100.00;100291.56;7391471;19;20763;-39
2023/11/01 04:54:53;;;;;;;6.63;1.70;;;;;;;5.23;100.00;100271.91;7371014;19;20752;-36
2023/11/01 04:57:22;;;;;;;7.40;2.27;;;;;;;5.16;100.00;100261.22;7390152;19;20420;-39
2023/11/01 04:59:52;;;;;;;15.10;5.67;;;;;;;5.24;100.00;100253.19;7368849;19;20439;-38
2023/11/01 05:02:22;;;;;;;14.50;2.17;;;;;;;5.20;100.00;100233.38;7389498;19;20407;-39
2023/11/01 05:04:52;;;;;;;4.47;1.87;;;;;;;5.20;100.00;100230.81;7370399;19;20403;-38
2023/11/01 05:07:21;;;;;;;5.30;1.87;;;;;;;5.22;100.00;100216.44;7389687;19;20404;-37
2023/11/01 05:09:54;;;;;;;13.67;4.97;;;;;;;5.19;100.00;100197.47;7366128;19;20636;-41
2023/11/01 05:12:23;;;;;;;3.33;1.30;;;;;;;5.18;100.00;100173.56;7391606;19;20759;-37
2023/11/01 05:14:53;;;;;;;8.17;3.47;;;;;;;5.25;100.00;100151.75;7368851;19;20426;-40
2023/11/01 05:17:23;;;;;;;4.20;1.90;;;;;;;5.20;100.00;100142.97;7391391;19;20407;-39
2023/11/01 05:19:53;;;;;;;9.03;2.63;;;;;;;5.21;100.00;100124.25;7367973;19;20471;-39
2023/11/01 05:22:22;;;;;;;8.40;1.87;;;;;;;5.20;100.00;100099.47;7389427;19;20411;-43
2023/11/01 05:24:54;;;;;;;7.10;1.70;;;;;;;5.20;100.00;100081.56;7368045;19;20416;-40
2023/11/01 05:27:24;;;;;;;5.70;1.80;;;;;;;5.12;100.00;100058.16;7391545;19;20388;-40
2023/11/01 05:29:54;;;;;;;6.87;2.63;;;;;;;5.12;100.00;100051.38;7367793;19;20812;-38
2023/11/01 05:32:23;;;;;;;6.40;2.67;;;;;;;5.10;100.00;100035.06;7389064;19;20400;-38
2023/11/01 05:34:53;;;;;;;10.83;2.13;;;;;;;5.16;100.00;100026.81;7367989;19;20768;-40
2023/11/01 05:37:23;;;;;;;4.97;1.43;;;;;;;5.12;100.00;100019.78;7391563;19;20831;-42
2023/11/01 05:39:55;;;;;;;5.20;1.97;;;;;;;5.14;100.00;100010.53;7366926;19;20439;-38
2023/11/01 05:42:25;;;;;;;3.43;1.10;;;;;;;5.20;100.00;100010.84;7389018;19;20474;-38
2023/11/01 05:44:54;;;;;;;3.07;1.33;;;;;;;5.16;100.00;100002.91;7368894;19;20441;-40
2023/11/01 05:47:24;;;;;;;7.70;1.40;;;;;;;5.03;100.00;99981.81;7394080;19;20411;-41
2023/11/01 05:49:54;;;;;;;5.97;1.43;;;;;;;5.12;100.00;99987.44;7374422;19;20439;-40
2023/11/01 05:52:23;;;;;;;3.67;1.10;;;;;;;5.05;100.00;99984.47;7394955;19;20491;-39
2023/11/01 05:54:55;;;;;;;5.90;1.70;;;;;;;5.03;100.00;99976.72;7374021;19;20415;-38
2023/11/01 05:57:39;;;;;;;4.97;1.00;;;;;;;5.03;100.00;99981.81;7397898;19;20418;-37
2023/11/01 06:00:10;;;;;;;5.70;2.83;;;;;;;5.06;100.00;99981.09;7374607;19;20392;-39
2023/11/01 06:02:40;;;;;;;4.17;1.53;;;;;;;5.16;100.00;100001.25;7396724;19;20420;-40
2023/11/01 06:05:10;;;;;;;3.47;1.60;;;;;;;5.12;100.00;100012.13;7373637;19;20943;-36
2023/11/01 06:07:40;;;;;;;7.00;2.37;;;;;;;5.13;100.00;100026.69;7394488;19;20749;-36
2023/11/01 06:10:12;;;;;;;3.03;1.30;;;;;;;5.11;100.00;100051.28;7369131;19;20429;-40
2023/11/01 06:12:42;;;;;;;15.70;2.67;;;;;;;5.06;100.00;100066.38;7393459;19;20407;-39
2023/11/01 06:15:13;;;;;;;5.97;2.40;;;;;;;5.40;100.00;100103.94;7374656;19;20402;-40
2023/11/01 06:17:42;;;;;;;4.33;1.67;;;;;;;6.05;100.00;100155.06;7393843;19;20966;-38
2023/11/01 06:20:13;;;;;;;217.43;100.20;;;;;;;5.87;100.00;100189.94;7373996;19;20471;-37
2023/11/01 06:22:42;;;;;;;13.73;4.50;;;;;;;5.69;100.00;100213.78;7392861;19;20842;-40
2023/11/01 06:25:16;;;;;;;6.67;1.53;;;;;;;5.46;100.00;100205.75;7372855;19;20475;-40
2023/11/01 06:27:46;;;;;;;12.10;6.97;;;;;;;5.73;100.00;100227.59;7394181;19;20400;-41
2023/11/01 06:30:16;;;;;;;10.47;5.30;;;;;;;6.03;100.00;100248.88;7373880;19;21154;-39
2023/11/01 06:32:46;;;;;;;17.83;7.63;;;;;;;5.94;100.00;100253.47;7395061;19;20404;-37
2023/11/01 06:35:16;;;;;;;14.07;7.93;;;;;;;6.15;100.00;100253.75;7373496;19;20395;-37
2023/11/01 06:37:46;;;;;;;8.27;3.60;;;;;;;5.78;100.00;100237.31;7394882;19;20829;-39
2023/11/01 06:40:18;;;;;;;20.43;5.33;;;;;;;5.58;100.00;100231.13;7372343;19;20515;-36
2023/11/01 06:42:48;;;;;;;9.97;4.13;;;;;;;5.56;100.00;100219.94;7394399;19;20482;-37
2023/11/01 06:45:18;;;;;;;5.30;1.70;;;;;;;5.37;100.00;100224.06;7371807;19;20493;-39
2023/11/01 06:47:47;;;;;;;9.23;2.43;;;;;;;5.32;100.00;100220.38;7392118;19;20954;-37
2023/11/01 06:50:17;;;;;;;5.00;1.93;;;;;;;5.26;100.00;100231.16;7372247;19;20480;-38
2023/11/01 06:52:47;;;;;;;9.33;2.27;;;;;;;5.20;100.00;100241.06;7395750;19;20403;-41
2023/11/01 06:55:19;;;;;;;9.93;2.20;;;;;;;5.10;100.00;100243.88;7371457;19;20538;-39
2023/11/01 06:57:50;;;;;;;11.73;3.10;;;;;;;5.08;100.00;100261.69;7391065;19;20420;-36
2023/11/01 07:00:20;;;;;;;11.53;2.53;;;;;;;5.14;100.00;100276.50;7372868;19;21022;-38
2023/11/01 07:02:50;;;;;;;10.03;2.63;;;;;;;5.17;100.00;100286.03;7393834;19;20399;-41
2023/11/01 07:05:20;;;;;;;9.47;3.23;;;;;;;5.14;100.00;100299.53;7372727;19;20419;-37
2023/11/01 07:07:49;;;;;;;11.70;3.40;;;;;;;5.18;100.00;100323.59;7394068;19;20411;-38
2023/11/01 07:10:22;;;;;;;5.97;2.40;;;;;;;5.19;100.00;100351.84;7370670;19;20438;-37
2023/11/01 07:12:51;;;;;;;10.23;3.33;;;;;;;5.24;100.00;100352.94;7394711;19;20408;-41
2023/11/01 07:15:21;;;;;;;7.80;2.70;;;;;;;5.22;100.00;100356.22;7374528;19;20426;-37
2023/11/01 07:17:51;;;;;;;13.03;2.60;;;;;;;5.18;100.00;100370.50;7395276;19;20444;-38
2023/11/01 07:20:21;;;;;;;8.70;3.10;;;;;;;5.20;100.00;100371.50;7375099;19;20423;-40
2023/11/01 07:22:51;;;;;;;8.37;3.20;;;;;;;5.17;100.00;100378.97;7394713;19;20483;-37
2023/11/01 07:25:23;;;;;;;8.07;3.00;;;;;;;5.15;100.00;100378.03;7375023;19;20530;-44
2023/11/01 07:27:52;;;;;;;11.53;4.00;;;;;;;5.19;100.00;100387.66;7395608;19;20418;-37
2023/11/01 07:30:22;;;;;;;9.93;3.50;;;;;;;5.20;100.00;100388.50;7371474;19;20419;-39
2023/11/01 07:32:52;;;;;;;10.60;3.50;;;;;;;5.21;100.00;100393.72;7390021;19;20415;-43
2023/11/01 07:35:22;;;;;;;11.63;3.67;;;;;;;5.22;100.00;100394.59;7358649;19;20459;-39
2023/11/01 07:37:51;;;;;;;9.93;4.03;;;;;;;5.23;100.00;100409.16;7394436;19;20416;-39
2023/11/01 07:40:23;;;;;;;10.50;4.30;;;;;;;5.19;100.00;100405.56;7374123;19;20971;-38
2023/11/01 07:42:53;;;;;;;7.70;3.57;;;;;;;5.26;100.00;100407.66;7394043;19;20934;-39
2023/11/01 07:45:23;;;;;;;10.53;3.70;;;;;;;5.25;100.00;100416.13;7372092;19;20427;-39
2023/11/01 07:47:52;;;;;;;16.70;4.03;;;;;;;5.26;100.00;100423.00;7395199;19;20464;-38
2023/11/01 07:50:22;;;;;;;9.70;4.20;;;;;;;5.29;100.00;100436.75;7372530;19;20451;-41
2023/11/01 07:52:52;;;;;;;14.90;5.20;;;;;;;5.33;100.00;100437.03;7393003;19;20412;-40
2023/11/01 07:55:24;;;;;;;20.70;4.00;;;;;;;5.34;100.00;100443.03;7371957;19;20463;-38
2023/11/01 07:57:54;;;;;;;14.07;4.50;;;;;;;5.33;100.00;100449.81;7391381;19;20400;-37
2023/11/01 08:00:24;;;;;;;10.50;4.00;;;;;;;5.35;100.00;100440.56;7366456;19;21172;-37
2023/11/01 08:02:53;;;;;;;11.67;4.67;;;;;;;5.38;100.00;100444.97;7394644;19;20491;-39
2023/11/01 08:05:23;;;;;;;10.13;3.60;;;;;;;5.38;100.00;100430.50;7370030;19;20960;-39
2023/11/01 08:07:53;;;;;;;12.37;3.77;;;;;;;5.42;100.00;100435.81;7389064;19;21179;-38
2023/11/01 08:10:25;;;;;;;8.93;4.47;;;;;;;5.42;100.00;100434.13;7364975;19;20495;-42
2023/11/01 08:12:55;;;;;;;8.47;3.97;;;;;;;5.43;100.00;100433.31;7378082;19;20418;-39
2023/11/01 08:15:24;;;;;;;16.80;4.50;;;;;;;5.45;100.00;100435.97;7367732;19;20487;-38
2023/11/01 08:17:54;;;;;;;11.70;4.10;;;;;;;5.46;100.00;100438.63;7391912;19;20403;-41
2023/11/01 08:20:24;;;;;;;7.37;3.90;;;;;;;5.52;100.00;100430.41;7370867;19;20765;-39
2023/11/01 08:22:54;;;;;;;14.97;4.57;;;;;;;5.52;100.00;100426.19;7392023;19;20411;-40
2023/11/01 08:25:27;;;;;;;10.67;4.20;;;;;;;5.53;100.00;100430.50;7370920;19;21001;-40
2023/11/01 08:27:56;;;;;;;16.13;4.87;;;;;;;5.56;100.00;100434.91;7392063;19;20787;-41
2023/11/01 08:30:26;;;;;;;15.13;5.60;;;;;;;5.63;100.00;100431.00;7369861;19;20498;-38
2023/11/01 08:32:56;;;;;;;9.80;4.67;;;;;;;5.63;100.00;100425.88;7392289;19;20410;-40
2023/11/01 08:35:26;;;;;;;11.30;3.63;;;;;;;5.74;100.00;100429.94;7363290;19;21001;-37
2023/11/01 08:37:55;;;;;;;12.90;4.50;;;;;;;5.76;100.00;100430.94;7386719;19;20428;-44
2023/11/01 08:40:27;;;;;;;12.00;4.77;;;;;;;5.79;100.00;100423.41;7370199;19;20432;-40
2023/11/01 08:42:57;;;;;;;7.77;4.03;;;;;;;5.81;100.00;100419.25;7393961;19;20948;-43
2023/11/01 08:45:27;;;;;;;13.30;4.70;;;;;;;5.86;100.00;100416.06;7369171;19;20427;-39
2023/11/01 08:47:56;;;;;;;10.90;4.27;;;;;;;5.91;100.00;100418.06;7390451;19;20967;-38
2023/11/01 08:50:26;;;;;;;14.13;4.80;;;;;;;5.87;100.00;100411.03;7369028;19;20423;-40
2023/11/01 08:52:56;;;;;;;20.60;6.43;;;;;;;6.01;100.00;100408.34;7392019;19;20497;-43
2023/11/01 08:55:28;;;;;;;40.33;17.27;;;;;;;6.26;100.00;100410.56;7369681;19;20496;-44
2023/11/01 08:57:58;;;;;;;19.60;7.30;;;;;;;6.29;100.00;100415.88;7392919;19;21261;-38
2023/11/01 09:00:27;;;;;;;18.13;6.03;;;;;;;6.34;100.00;100404.19;7368814;19;20429;-40
2023/11/01 09:03:14;;;;;;;20.67;9.40;;;;;;;6.54;100.00;100399.25;7392207;19;20793;-40
2023/11/01 09:05:44;;;;;;;22.03;7.87;;;;;;;6.53;100.00;100388.91;7370310;19;20433;-37
2023/11/01 09:08:14;;;;;;;14.83;6.53;;;;;;;6.61;100.00;100385.03;7390921;19;20419;-39
2023/11/01 09:10:47;;;;;;;16.60;6.07;;;;;;;6.69;100.00;100370.06;7367969;19;20535;-42
2023/11/01 09:13:20;;;;;;;19.87;5.27;;;;;;;6.60;100.00;100361.09;7392563;19;20409;-40
2023/11/01 09:15:50;;;;;;;13.07;5.13;;;;;;;6.61;100.00;100355.19;7369576;19;20432;-37
2023/11/01 09:18:20;;;;;;;11.43;5.23;;;;;;;6.64;100.00;100346.75;7392912;19;20429;-36
2023/11/01 09:20:50;;;;;;;10.67;4.90;;;;;;;6.73;100.00;100348.91;7373394;19;20415;-36
2023/11/01 09:23:20;;;;;;;15.13;5.30;;;;;;;6.79;100.00;100336.41;7401603;19;20791;-38
2023/11/01 09:25:52;;;;;;;9.17;5.10;;;;;;;6.83;100.00;100328.03;7373388;19;20976;-39
2023/11/01 09:28:22;;;;;;;14.17;4.70;;;;;;;6.77;100.00;100317.47;7398732;19;20439;-44
2023/11/01 09:30:52;;;;;;;11.60;4.97;;;;;;;6.83;100.00;100312.66;7374701;19;20414;-40
2023/11/01 09:33:22;;;;;;;14.07;5.00;;;;;;;6.86;100.00;100307.69;7397334;19;20403;-39
2023/11/01 09:35:52;;;;;;;11.83;5.23;;;;;;;6.85;100.00;100302.47;7376054;19;20419;-38
2023/11/01 09:38:22;;;;;;;9.30;4.30;;;;;;;6.84;100.00;100298.16;7397104;19;20435;-40
2023/11/01 09:40:55;;;;;;;10.50;4.87;;;;;;;6.84;100.00;100304.19;7373674;19;20423;-42
2023/11/01 09:43:24;;;;;;;11.50;4.67;;;;;;;6.86;100.00;100304.25;7399677;19;20462;-42
2023/11/01 09:45:54;;;;;;;14.83;5.63;;;;;;;6.93;100.00;100310.56;7373786;19;20950;-42
2023/11/01 09:48:24;;;;;;;11.77;5.10;;;;;;;6.97;100.00;100309.94;7395450;19;20450;-42
2023/11/01 09:50:55;;;;;;;14.27;5.40;;;;;;;7.01;100.00;100316.94;7373543;19;20788;-42
2023/11/01 09:53:24;;;;;;;15.17;5.87;;;;;;;7.13;100.00;100312.41;7394994;19;20428;-39
2023/11/01 09:55:57;;;;;;;15.53;5.60;;;;;;;7.20;100.00;100307.56;7375124;19;20970;-45
2023/11/01 09:58:27;;;;;;;13.70;5.53;;;;;;;7.24;100.00;100296.66;7389563;19;20510;-41
2023/11/01 10:00:58;;;;;;;14.97;5.93;;;;;;;7.34;100.00;100291.16;7372798;19;20522;-37
2023/11/01 10:03:28;;;;;;;9.60;5.00;;;;;;;7.45;100.00;100288.22;7396211;19;20403;-46
2023/11/01 10:05:58;;;;;;;14.90;6.13;;;;;;;7.52;100.00;100285.13;7373968;19;20423;-42
2023/11/01 10:08:27;;;;;;;13.60;5.43;;;;;;;7.52;100.00;100273.19;7395120;19;20439;-41
2023/11/01 10:11:04;;;;;;;15.53;6.50;;;;;;;7.63;100.00;100265.09;7372558;19;20551;-40
2023/11/01 10:13:33;;;;;;;14.40;5.70;;;;;;;7.70;100.00;100257.72;7395273;19;20407;-39
2023/11/01 10:16:03;;;;;;;15.33;6.40;;;;;;;7.82;100.00;100253.97;7373320;19;20475;-39
2023/11/01 10:18:35;;;;;;;9.27;4.87;;;;;;;7.83;100.00;100240.31;7395265;19;20526;-39
2023/11/01 10:21:05;;;;;;;13.00;5.60;;;;;;;7.89;100.00;100230.31;7373133;19;20480;-39
2023/11/01 10:23:35;;;;;;;10.47;5.00;;;;;;;7.93;100.00;100231.31;7396049;19;20412;-42
2023/11/01 10:26:08;;;;;;;14.67;5.97;;;;;;;7.97;100.00;100228.97;7373932;19;20817;-37
2023/11/01 10:28:42;;;;;;;11.97;5.50;;;;;;;8.05;100.00;100213.00;7395867;19;20439;-42
2023/11/01 10:31:14;;;;;;;11.20;5.20;;;;;;;8.15;100.00;100215.13;7370467;19;20422;-39
2023/11/01 10:33:44;;;;;;;9.43;5.13;;;;;;;8.23;100.00;100208.66;7396926;19;20420;-36
2023/11/01 10:36:14;;;;;;;9.90;5.37;;;;;;;8.27;100.00;100203.63;7373921;19;20427;-41
2023/11/01 10:38:44;;;;;;;12.50;5.43;;;;;;;8.27;100.00;100185.63;7395684;19;20444;-42
2023/11/01 10:41:18;;;;;;;13.20;4.67;;;;;;;8.19;100.00;100173.34;7373779;19;20442;-40
2023/11/01 10:43:49;;;;;;;14.33;5.20;;;;;;;8.31;100.00;100177.25;7396468;19;20399;-43
2023/11/01 10:46:18;;;;;;;12.40;5.67;;;;;;;8.36;100.00;100162.91;7375189;19;20447;-37
2023/11/01 10:48:48;;;;;;;11.80;5.90;;;;;;;8.53;100.00;100160.16;7394894;19;20443;-39
2023/11/01 10:51:18;;;;;;;20.23;6.47;;;;;;;8.56;100.00;100155.16;7371646;19;20458;-37
2023/11/01 10:53:49;;;;;;;19.60;8.87;;;;;;;8.77;100.00;100153.44;7396848;19;20495;-37
2023/11/01 10:56:21;;;;;;;8.93;5.43;;;;;;;8.68;100.00;100129.03;7374549;19;20422;-37
2023/11/01 10:58:52;;;;;;;22.10;10.93;;;;;;;8.80;100.00;100120.91;7390960;19;20448;-38
2023/11/01 11:01:24;;;;;;;29.97;15.33;;;;;;;9.04;100.00;100133.88;7368020;19;20418;-39
2023/11/01 11:03:57;;;;;;;22.97;12.77;;;;;;;9.36;100.00;100130.72;7392821;19;20782;-37
2023/11/01 11:06:32;;;;;;;13.90;7.97;;;;;;;9.26;100.00;100096.03;7372826;19;20491;-40
2023/11/01 11:09:19;;;;;;;10.27;6.40;;;;;;;9.10;100.00;100063.72;7395308;19;20440;-37
2023/11/01 11:12:24;;;;;;;11.83;6.37;;;;;;;9.14;100.00;100057.88;7372378;19;20435;-37
2023/11/01 11:14:54;;;;;;;89.63;44.63;;;;;;;9.61;100.00;100057.81;7372656;19;21006;-37
2023/11/01 11:17:25;;;;;;;27.07;12.27;;;;;;;9.66;100.00;100045.09;7394544;19;20400;-40
2023/11/01 11:20:16;;;;;;;12.20;6.50;;;;;;;9.79;100.00;100021.47;7372354;19;20459;-37
2023/11/01 11:23:08;;;;;;;14.60;8.80;;;;;;;9.62;100.00;99977.13;7394288;19;20483;-37
2023/11/01 11:25:52;;;;;;;34.27;16.73;;;;;;;9.84;100.00;99952.94;7371587;19;20443;-37
2023/11/01 11:28:51;;;;;;;22.33;9.57;;;;;;;10.02;100.00;99920.84;7396334;19;20447;-38
2023/11/01 11:31:24;;;;;;;8.90;4.80;;;;;;;9.86;100.00;99886.88;7372980;19;20506;-37
2023/11/01 11:34:13;;;;;;;13.63;5.00;;;;;;;9.80;100.00;99858.34;7395997;19;20387;-37
2023/11/01 11:37:08;;;;;;;11.30;4.90;;;;;;;9.66;100.00;99845.06;7372367;19;20427;-41